Nearby METAR Reports

 

KTTN - Trenton, New Jersey, USA
Distance from station: W 8mi, 12km
Updated: Mon, 05-Dec-2022 10:53pm EST
Clear
Clear
 Wind from calm
Wind: Calm
Temperature: 34°F , 1°C
Dew Point: 25°F , -4°C
Humidity: 70%
Barometer: 30.30 inHg , 1026.1 hPa
Clouds: Clear
Visibility: 10 miles , 16 km
2022/12/06 03:53 KTTN 060353Z AUTO 00000KT 10SM CLR 01/M04 A3030 RMK AO2 SLP255 T00061039
KWRI - Wrightst/Mcguire, New Jersey, USA
Distance from station: SSE 18mi, 29km
Updated: Mon, 05-Dec-2022 10:55pm EST
Clear
Clear
 Wind from calm
Wind: Calm
Temperature: 28°F , -2°C
Dew Point: 28°F , -2°C
Humidity: 100%
Barometer: 30.29 inHg , 1025.7 hPa
Clouds: Clear
Visibility: 10 miles , 16 km
2022/12/06 03:55 KWRI 060355Z AUTO 00000KT 10SM CLR M02/M02 A3029 RMK AO2 SLP258 T10201023
KPNE - Philadelphia/Ne, Pennsylvania, USA
Distance from station: SW 22mi, 35km
Updated: Mon, 05-Dec-2022 10:54pm EST
Clear
Clear
 Wind from NNE
Wind: NNE 5 mph , 7 km/h
Temperature: 30°F , -1°C
Wind Chill: 25°F , -4°C
Dew Point: 21°F , -6°C
Humidity: 69%
Barometer: 30.31 inHg , 1026.4 hPa
Clouds: Clear
Visibility: 10 miles , 16 km
2022/12/06 03:54 KPNE 060354Z AUTO 02004KT 10SM CLR M01/M06 A3031 RMK AO2 SLP266 T10061056
 
KDYL - Doylestown, Pennsylvania, USA
Distance from station: W 24mi, 38km
Updated: Mon, 05-Dec-2022 10:54pm EST
Clear
Clear
 Wind from calm
Wind: Calm
Temperature: 30°F , -1°C
Dew Point: 21°F , -6°C
Humidity: 69%
Barometer: 30.29 inHg , 1025.7 hPa
Clouds: Clear
Visibility: 10 miles , 16 km
2022/12/06 03:54 KDYL 060354Z AUTO 00000KT 10SM CLR M01/M06 A3029 RMK AO2 SLP263 T10061056
KSMQ - Somerville, New Jersey, USA
Distance from station: 0 24mi, 39km
Updated: Mon, 05-Dec-2022 10:53pm EST
Clear
Clear
 Wind from calm
Wind: Calm
Temperature: 25°F , -4°C
Dew Point: 23°F , -5°C
Humidity: 93%
Barometer: 30.29 inHg , 1025.7 hPa
Clouds: Clear
Visibility: 10 miles , 16 km
2022/12/06 03:53 KSMQ 060353Z AUTO 00000KT 10SM CLR M04/M05 A3029 RMK AO2 SLP261 T10391050
KVAY - Mount Holly, New Jersey, USA
Distance from station: SSW 24mi, 39km
Updated: Mon, 05-Dec-2022 10:54pm EST
Clear
Clear
 Wind from calm
Wind: Calm
Temperature: 27°F , -3°C
Dew Point: 23°F , -5°C
Humidity: 86%
Barometer: 30.30 inHg , 1026.1 hPa
Clouds: Clear
Visibility: 10 miles , 16 km
2022/12/06 03:54 KVAY 060354Z AUTO 00000KT 10SM CLR M03/M05 A3030 RMK AO2 SLP261 T10281050
 
KNEL - Lakehurst Nas, New Jersey, USA
Distance from station: SE 25mi, 40km
Updated: Wed, 30-Nov-2022 11:03am EST
NOT Current
Light rain, Overcast
Light rain, Overcast
 Wind from SSE
Wind: SSE 16 mph , 26 km/h, Gust: 24 mph , 39 km/h
Temperature: 55°F , 13°C
Dew Point: 54°F , 12°C
Humidity: 94%
Barometer: 29.89 inHg , 1012.2 hPa
Summary: Light rain
Clouds: Overcast
Cloud details: Mostly cloudy 1400 ft
Mostly cloudy 3200 ft
Overcast 6000 ft
2022/11/30 16:03 KNEL 301603Z AUTO 16014G21KT -RA BKN014 BKN032 OVC060 13/12 A2989 RMK AO2 PRESFR T01280117 PNO $
KBLM - Belmar/Farmdale, New Jersey, USA
Distance from station: ESE 30mi, 48km
Updated: Mon, 05-Dec-2022 10:56pm EST
Clear
Clear
 Wind from ENE
Wind: ENE 5 mph , 7 km/h
Temperature: 32°F , 0°C
Wind Chill: 27°F , -3°C
Dew Point: 32°F , 0°C
Humidity: 100%
Barometer: 30.30 inHg , 1026.1 hPa
Clouds: Clear
Visibility: 10 miles , 16 km
2022/12/06 03:56 KBLM 060356Z AUTO 07004KT 10SM CLR 00/00 A3030 RMK AO2 SLP263 T00000000 FZRANO
KMJX - Toms River, New Jersey, USA
Distance from station: SE 30mi, 49km
Updated: Wed, 12-Oct-2022 11:56pm EDT
NOT Current
Clear
Clear
 Wind from calm
Wind: Calm
Temperature: 50°F , 10°C
Dew Point: 50°F , 10°C
Humidity: 100%
Barometer: 30.08 inHg , 1018.6 hPa
Clouds: Clear
Visibility: 10 miles , 16 km
2022/10/13 03:56 KMJX 130356Z AUTO 00000KT 10SM CLR 10/10 A3008 RMK AO2 SLP188 T01000100 402170028 TSNO
 
KLOM - Philly Wings F, Pennsylvania, USA
Distance from station: WSW 33mi, 52km
Updated: Mon, 05-Dec-2022 10:55pm EST
Clear
Clear
 Wind from calm
Wind: Calm
Temperature: 27°F , -3°C
Dew Point: 25°F , -4°C
Humidity: 93%
Barometer: 30.29 inHg , 1025.7 hPa
Clouds: Clear
Visibility: 10 miles , 16 km
2022/12/06 03:55 KLOM 060355Z AUTO 00000KT 10SM CLR M03/M04 A3029 RMK AO2 T10311043
KCKZ - Perkasie, Pennsylvania, USA
Distance from station: WNW 33mi, 53km
Updated: Mon, 05-Dec-2022 11:15pm EST
Clear
Clear
 Wind from calm
Wind: Calm
Temperature: 27°F , -3°C
Dew Point: 25°F , -4°C
Humidity: 93%
Barometer: 30.29 inHg , 1025.7 hPa
Clouds: Clear
Visibility: 10 miles , 16 km
2022/12/06 04:15 KCKZ 060415Z AUTO 00000KT 10SM CLR M03/M04 A3029 RMK AO2
KLDJ - Linden, New Jersey, USA
Distance from station: NE 33mi, 53km
Updated: Mon, 05-Dec-2022 11:15pm EST
Clear
Clear
 Wind from WNW
Wind: WNW 3 mph , 6 km/h
Temperature: 36°F , 2°C
Dew Point: 28°F , -2°C
Humidity: 75%
Barometer: 30.31 inHg , 1026.4 hPa
Clouds: Clear
Visibility: 10 miles , 16 km
2022/12/06 04:15 KLDJ 060415Z AUTO 30003KT 10SM CLR 02/M02 A3031 RMK AO2 T00161021
 
KMMU - Morristown Muni, New Jersey, USA
Distance from station: NNE 38mi, 62km
Updated: Mon, 05-Dec-2022 10:55pm EST
Clear
Clear
 Wind from calm
Wind: Calm
Temperature: 25°F , -4°C
Dew Point: 23°F , -5°C
Humidity: 93%
Barometer: 30.31 inHg , 1026.4 hPa
Clouds: Clear
Visibility: 10 miles , 16 km
2022/12/06 03:55 KMMU 060355Z AUTO 00000KT 10SM CLR M04/M05 A3031 RMK AO2
KEWR - Newark, New Jersey, USA
Distance from station: NE 39mi, 63km
Updated: Mon, 05-Dec-2022 10:51pm EST
Mostly cloudy
Mostly cloudy
 Wind from calm
Wind: Calm
Temperature: 43°F , 6°C
Dew Point: 30°F , -1°C
Humidity: 61%
Barometer: 30.31 inHg , 1026.4 hPa
Clouds: Mostly cloudy
Visibility: 10 miles , 16 km
Cloud details: Mostly cloudy 25000 ft
2022/12/06 03:51 KEWR 060351Z 00000KT 10SM BKN250 06/M01 A3031 RMK AO2 SLP261 T00561011
KUKT - Quakertown Arp, Pennsylvania, USA
Distance from station: WNW 39mi, 63km
Updated: Mon, 05-Dec-2022 11:15pm EST
Clear
Clear
 Wind from calm
Wind: Calm
Temperature: 25°F , -4°C
Dew Point: 23°F , -5°C
Humidity: 93%
Barometer: 30.29 inHg , 1025.7 hPa
Clouds: Clear
Visibility: 10 miles , 16 km
2022/12/06 04:15 KUKT 060415Z AUTO 00000KT 10SM CLR M04/M05 A3029 RMK A01
 
KPHL - Philadelphia, Pennsylvania, USA
Distance from station: SW 40mi, 65km
Updated: Mon, 05-Dec-2022 10:54pm EST
Mostly cloudy
Mostly cloudy
 Wind from calm
Wind: Calm
Temperature: 36°F , 2°C
Dew Point: 27°F , -3°C
Humidity: 70%
Barometer: 30.30 inHg , 1026.1 hPa
Clouds: Mostly cloudy
Visibility: 10 miles , 16 km
Cloud details: Mostly cloudy 28000 ft
2022/12/06 03:54 KPHL 060354Z 00000KT 10SM BKN280 02/M03 A3030 RMK AO2 SLP260 T00221028
KJRB - Manhattan/Dwntwn, New York, USA
Distance from station: NE 46mi, 74km
Updated: Mon, 05-Dec-2022 10:56pm EST
Clear
Clear
 Wind from NE
Wind: NE 7 mph , 11 km/h
Barometer: 30.32 inHg , 1026.8 hPa
Clouds: Clear
Visibility: 10 miles , 16 km
2022/12/06 03:56 KJRB 060356Z AUTO 05006KT 10SM CLR A3032 RMK AO2 SLPNO FZRANO $
KPTW - Pottstown, Pennsylvania, USA
Distance from station: W 46mi, 74km
Updated: Wed, 30-Nov-2022 5:54pm EST
NOT Current
Overcast
Overcast
 Wind from WNW
Wind: WNW 7 mph , 11 km/h
Temperature: 48°F , 9°C
Wind Chill: 45°F , 7°C
Dew Point: 37°F , 3°C
Humidity: 66%
Barometer: 29.83 inHg , 1010.2 hPa
Clouds: Overcast
Visibility: 10 miles , 16 km
Cloud details: Mostly cloudy 8000 ft
Overcast 9500 ft
2022/11/30 22:54 KPTW 302254Z AUTO 29006KT 10SM BKN080 OVC095 09/03 A2983 RMK AO2 SLP100 T00940033
 
KCDW - Caldwell, New Jersey, USA
Distance from station: NNE 47mi, 76km
Updated: Mon, 05-Dec-2022 10:53pm EST
Clear
Clear
 Wind from calm
Wind: Calm
Temperature: 28°F , -2°C
Dew Point: 21°F , -6°C
Humidity: 74%
Barometer: 30.31 inHg , 1026.4 hPa
Clouds: Clear
Visibility: 10 miles , 16 km
2022/12/06 03:53 KCDW 060353Z AUTO 00000KT 10SM CLR M02/M06 A3031 RMK AO2 SLP272 T10171056
KXLL - Allentown Queen, Pennsylvania, USA
Distance from station: WNW 47mi, 76km
Updated: Mon, 05-Dec-2022 10:55pm EST
Clear
Clear
 Wind from calm
Wind: Calm
Temperature: 30°F , -1°C
Dew Point: 27°F , -3°C
Humidity: 86%
Barometer: 30.30 inHg , 1026.1 hPa
Clouds: Clear
Visibility: 10 miles , 16 km
2022/12/06 03:55 KXLL 060355Z AUTO 00000KT 10SM CLR M01/M03 A3030 RMK AO2